createdAt,value
2019-02-05T00:00:36.356Z,97.41
2019-02-05T00:05:49.832Z,97.38
2019-02-05T00:11:05.446Z,97.37
2019-02-05T00:16:16.229Z,97.36
2019-02-05T00:21:28.261Z,97.25
2019-02-05T00:26:42.769Z,96.99
2019-02-05T00:31:51.738Z,97.01
2019-02-05T00:37:07.588Z,97.10
2019-02-05T00:42:16.070Z,97.11
2019-02-05T00:47:26.846Z,97.05
2019-02-05T00:52:38.507Z,97.02
2019-02-05T00:57:56.843Z,97.07
2019-02-05T01:03:04.214Z,96.98
2019-02-05T01:08:12.979Z,96.90
2019-02-05T01:13:24.720Z,96.99
2019-02-05T01:18:33.978Z,96.93
2019-02-05T01:23:42.346Z,96.98
2019-02-05T01:28:51.110Z,97.02
2019-02-05T01:33:59.726Z,97.11
2019-02-05T01:39:09.673Z,97.12
2019-02-05T01:44:23.436Z,97.01
2019-02-05T01:49:34.777Z,96.83
2019-02-05T01:54:42.149Z,96.69
2019-02-05T01:59:52.978Z,96.70
2019-02-05T02:05:02.202Z,97.04
2019-02-05T02:10:12.209Z,97.04
2019-02-05T02:15:24.748Z,97.06
2019-02-05T02:20:36.202Z,97.09
2019-02-05T02:25:45.193Z,97.15
2019-02-05T02:30:52.611Z,96.88
2019-02-05T02:36:04.399Z,97.14
2019-02-05T02:41:21.646Z,97.47
2019-02-05T02:46:32.550Z,97.62
2019-02-05T02:51:45.483Z,97.61
2019-02-05T02:57:04.918Z,97.56
2019-02-05T03:02:13.542Z,97.58
2019-02-05T03:07:25.554Z,97.67
2019-02-05T03:12:35.650Z,97.74
2019-02-05T03:17:52.070Z,97.98
2019-02-05T03:23:01.094Z,98.13
2019-02-05T03:28:12.841Z,98.30
2019-02-05T03:33:22.852Z,98.58
2019-02-05T03:38:29.707Z,98.56
2019-02-05T03:43:39.524Z,98.28
2019-02-05T03:48:56.100Z,98.22
2019-02-05T03:54:16.299Z,98.21
2019-02-05T03:59:44.330Z,98.23
2019-02-05T04:05:28.313Z,98.28
2019-02-05T04:11:19.588Z,98.34
2019-02-05T04:17:34.902Z,98.70
2019-02-05T04:22:59.751Z,98.87
2019-02-05T04:28:31.496Z,99.01
2019-02-05T04:33:59.015Z,99.02
2019-02-05T04:39:50.194Z,98.80
2019-02-05T04:45:53.002Z,98.64
2019-02-05T04:51:29.930Z,98.85
2019-02-05T04:57:20.379Z,99.14
2019-02-05T05:02:55.447Z,99.45
2019-02-05T05:08:52.207Z,99.71
2019-02-05T05:14:05.670Z,99.77
2019-02-05T05:19:19.399Z,99.72
2019-02-05T05:24:35.046Z,99.76
2019-02-05T05:29:46.828Z,99.86
2019-02-05T05:35:01.578Z,99.80
2019-02-05T05:40:11.018Z,99.63
2019-02-05T05:45:24.945Z,99.44
2019-02-05T05:50:33.080Z,99.52
2019-02-05T05:55:48.138Z,99.70
2019-02-05T06:01:02.054Z,99.71
2019-02-05T06:06:16.101Z,99.70
2019-02-05T06:11:45.050Z,99.75
2019-02-05T06:16:55.596Z,99.85
2019-02-05T06:22:08.334Z,99.88
2019-02-05T06:27:18.681Z,99.91
2019-02-05T06:32:30.542Z,100.00
2019-02-05T06:37:41.405Z,99.96
2019-02-05T06:42:55.028Z,99.92
2019-02-05T06:48:24.945Z,99.98
2019-02-05T06:53:33.497Z,100.00
2019-02-05T06:58:46.398Z,99.90
2019-02-05T07:03:54.612Z,99.92
2019-02-05T07:09:04.795Z,100.00
2019-02-05T07:14:15.769Z,99.99
2019-02-05T07:19:26.766Z,99.89
2019-02-05T07:24:41.331Z,99.93
2019-02-05T07:29:54.199Z,99.88
2019-02-05T07:35:03.646Z,99.64
2019-02-05T07:40:15.400Z,99.63
2019-02-05T07:45:26.651Z,99.62
2019-02-05T07:50:35.841Z,99.58
2019-02-05T07:55:47.153Z,99.57
2019-02-05T08:01:02.866Z,99.51
2019-02-05T08:06:12.904Z,99.46
2019-02-05T08:11:27.664Z,99.55
2019-02-05T08:16:38.591Z,99.57
2019-02-05T08:21:49.252Z,99.49
2019-02-05T08:26:58.444Z,99.42
2019-02-05T08:32:08.810Z,99.33
2019-02-05T08:37:24.333Z,99.30
2019-02-05T08:42:35.417Z,99.31
2019-02-05T08:47:43.768Z,99.32
2019-02-05T08:52:51.522Z,99.12
2019-02-05T08:58:05.305Z,98.63
2019-02-05T09:03:14.065Z,98.54
2019-02-05T09:08:27.612Z,98.23
2019-02-05T09:13:40.054Z,97.71
2019-02-05T09:18:54.040Z,97.67
2019-02-05T09:24:06.857Z,97.41
2019-02-05T09:29:18.966Z,97.77
2019-02-05T09:34:34.392Z,97.82
2019-02-05T09:39:48.210Z,97.67
2019-02-05T09:45:00.048Z,97.10
2019-02-05T09:50:31.048Z,97.04
2019-02-05T09:55:41.320Z,96.49
2019-02-05T10:00:52.300Z,96.31
2019-02-05T10:06:04.531Z,96.50
2019-02-05T10:11:17.841Z,95.49
2019-02-05T10:16:29.967Z,94.66
2019-02-05T10:21:40.019Z,94.78
2019-02-05T10:26:51.869Z,95.14
2019-02-05T10:32:03.758Z,94.31
2019-02-05T10:37:16.492Z,94.06
2019-02-05T10:42:31.091Z,94.29
2019-02-05T10:47:41.042Z,94.08
2019-02-05T10:52:59.501Z,94.08
2019-02-05T10:58:13.649Z,94.11
2019-02-05T11:03:23.174Z,93.97
2019-02-05T11:08:39.264Z,94.25
2019-02-05T11:13:52.904Z,93.89
2019-02-05T11:19:06.743Z,93.28
2019-02-05T11:24:18.820Z,93.03
2019-02-05T11:29:35.895Z,92.37
2019-02-05T11:34:48.627Z,92.95
2019-02-05T11:40:04.787Z,92.71
2019-02-05T11:45:19.758Z,93.16
2019-02-05T11:50:32.620Z,92.49
2019-02-05T11:55:44.662Z,92.52
2019-02-05T12:00:57.840Z,92.84
2019-02-05T12:06:07.549Z,92.68
2019-02-05T12:11:17.545Z,92.40
2019-02-05T12:16:29.880Z,92.12
2019-02-05T12:21:47.359Z,91.78
2019-02-05T12:26:55.465Z,91.45
2019-02-05T12:32:07.522Z,91.76
2019-02-05T12:37:19.431Z,91.31
2019-02-05T12:42:34.923Z,92.18
2019-02-05T12:47:48.144Z,91.00
2019-02-05T12:53:04.363Z,90.88
2019-02-05T12:58:17.056Z,90.57
2019-02-05T13:03:32.175Z,90.97
2019-02-05T13:08:42.234Z,90.94
2019-02-05T13:13:53.007Z,90.05
2019-02-05T13:19:02.186Z,90.35
2019-02-05T13:24:16.661Z,90.69
2019-02-05T13:29:23.251Z,90.79
2019-02-05T13:34:36.027Z,90.58
2019-02-05T13:39:46.895Z,89.87
2019-02-05T13:45:03.423Z,89.81
2019-02-05T13:50:13.758Z,89.55
2019-02-05T13:55:23.509Z,90.01
2019-02-05T14:00:38.452Z,90.00
2019-02-05T14:05:51.190Z,90.04
2019-02-05T14:11:04.984Z,90.53
2019-02-05T14:16:17.038Z,90.70
2019-02-05T14:21:29.733Z,90.68
2019-02-05T14:26:43.511Z,90.82
2019-02-05T14:31:55.716Z,92.24
2019-02-05T14:37:05.788Z,92.59
2019-02-05T14:42:14.895Z,93.50
2019-02-05T14:47:31.022Z,94.06
2019-02-05T14:52:38.515Z,94.19
2019-02-05T14:57:49.561Z,94.17
2019-02-05T15:03:02.434Z,94.32
2019-02-05T15:08:14.544Z,94.88
2019-02-05T15:13:25.552Z,95.37
2019-02-05T15:18:40.323Z,95.53
2019-02-05T15:23:55.826Z,95.90
2019-02-05T15:29:06.735Z,95.74
2019-02-05T15:34:24.240Z,96.06
2019-02-05T15:39:36.943Z,95.98
2019-02-05T15:44:47.000Z,95.90
2019-02-05T15:50:06.210Z,95.61
2019-02-05T15:55:20.976Z,95.63
2019-02-05T16:00:34.739Z,95.81
2019-02-05T16:05:43.955Z,95.56
2019-02-05T16:10:58.574Z,95.56
2019-02-05T16:16:10.588Z,95.45
2019-02-05T16:21:26.772Z,95.66
2019-02-05T16:26:40.450Z,95.66
2019-02-05T16:31:51.254Z,95.33
2019-02-05T16:36:59.613Z,95.24
2019-02-05T16:42:12.334Z,95.18
2019-02-05T16:47:25.529Z,94.94
2019-02-05T16:52:36.466Z,94.66
2019-02-05T16:57:50.174Z,94.51
2019-02-05T17:03:04.274Z,94.09
2019-02-05T17:08:16.563Z,93.62
2019-02-05T17:13:26.611Z,93.47
2019-02-05T17:18:40.308Z,93.27
2019-02-05T17:23:53.999Z,93.07
2019-02-05T17:29:06.797Z,93.00
2019-02-05T17:34:17.034Z,93.11
2019-02-05T17:39:27.791Z,92.83
2019-02-05T17:44:44.049Z,92.56
2019-02-05T17:49:56.501Z,92.00
2019-02-05T17:55:14.004Z,91.75
2019-02-05T18:00:54.192Z,91.23
2019-02-05T18:06:02.361Z,91.05
2019-02-05T18:11:12.702Z,91.37
2019-02-05T18:16:24.506Z,91.48
2019-02-05T18:21:32.886Z,91.29
2019-02-05T18:26:43.737Z,91.20
2019-02-05T18:31:56.496Z,90.91
2019-02-05T18:37:14.001Z,90.78
2019-02-05T18:42:24.885Z,90.75
2019-02-05T18:47:37.717Z,90.75
2019-02-05T18:52:50.868Z,90.86
2019-02-05T18:58:08.924Z,90.80
2019-02-05T19:03:15.699Z,90.66
2019-02-05T19:08:28.614Z,90.81
2019-02-05T19:13:41.292Z,90.13
2019-02-05T19:18:48.742Z,89.73
2019-02-05T19:24:07.988Z,89.56
2019-02-05T19:29:23.832Z,89.63
2019-02-05T19:34:37.479Z,89.60
2019-02-05T19:39:47.702Z,89.38
2019-02-05T19:45:13.380Z,89.27
2019-02-05T19:50:23.989Z,89.50
2019-02-05T19:55:32.319Z,89.35
2019-02-05T20:00:46.623Z,89.43
2019-02-05T20:07:36.451Z,89.44
2019-02-05T20:12:47.231Z,89.09
2019-02-05T20:17:56.686Z,89.41
2019-02-05T20:23:08.752Z,89.69
2019-02-05T20:28:15.671Z,89.98
2019-02-05T20:33:24.399Z,89.61
2019-02-05T20:38:34.554Z,89.55
2019-02-05T20:43:46.890Z,89.46
2019-02-05T20:48:59.824Z,89.48
2019-02-05T20:54:07.957Z,89.36
2019-02-05T20:59:20.910Z,90.02
2019-02-05T21:04:35.574Z,90.26
2019-02-05T21:09:49.426Z,90.20
2019-02-05T21:15:01.035Z,90.21
2019-02-05T21:20:09.475Z,90.12
2019-02-05T21:25:21.870Z,90.32
2019-02-05T21:30:32.402Z,90.48
2019-02-05T21:35:40.340Z,90.68
2019-02-05T21:40:48.393Z,90.79
2019-02-05T21:46:01.290Z,90.81
2019-02-05T21:51:11.167Z,90.58
2019-02-05T21:56:26.861Z,90.89
2019-02-05T22:01:35.403Z,91.48
2019-02-05T22:06:48.164Z,91.69
2019-02-05T22:12:02.142Z,91.87
2019-02-05T22:17:13.923Z,92.02
2019-02-05T22:22:26.535Z,92.43
2019-02-05T22:27:37.523Z,93.31
2019-02-05T22:32:49.643Z,93.57
2019-02-05T22:38:10.613Z,93.82
2019-02-05T22:43:25.713Z,93.49
2019-02-05T22:48:37.529Z,93.37
2019-02-05T22:59:22.707Z,92.77
2019-02-05T23:05:14.199Z,92.70
2019-02-05T23:11:03.104Z,92.69
2019-02-05T23:16:07.282Z,92.64
2019-02-05T23:21:22.383Z,92.43
2019-02-05T23:26:37.610Z,92.16
2019-02-05T23:31:51.257Z,91.59
2019-02-05T23:37:00.333Z,90.75
2019-02-05T23:42:08.245Z,90.19
2019-02-05T23:47:18.562Z,89.47
2019-02-05T23:52:31.468Z,89.22
2019-02-05T23:57:42.046Z,88.84
